Date,TemperatureHighF,TemperatureAvgF,TemperatureLowF,DewpointHighF,DewpointAvgF,DewpointLowF,HumidityHigh,HumidityAvg,HumidityLow,PressureMaxIn,PressureMinIn,WindSpeedMaxMPH,WindSpeedAvgMPH,GustSpeedMaxMPH,PrecipitationSumIn
2013-2-1,76,48,52,39,3,-100,61,30,22,30.08,30.00,1,-250,3,0.00
2013-2-2,53,53,53,37,37,37,55,55,55,30.09,30.09,0,0,0,0.00
2013-2-4,83,42,83,34,-33,-100,17,8,17,29.90,29.81,0,-500,4,0.00
2013-2-5,79,74,67,36,35,33,28,24,21,29.87,29.75,1,0,5,0.00
2013-2-6,61,61,61,41,41,41,49,49,49,29.75,29.75,3,3,3,0.00
2013-2-7,75,75,75,30,30,30,19,19,19,29.84,29.84,2,2,7,0.00
2013-2-9,55,48,40,36,36,35,84,66,47,29.87,29.76,1,0,2,0.00
2013-2-10,63,63,63,33,33,33,33,33,33,29.88,29.88,1,1,6,0.00
2013-2-12,55,55,55,19,19,19,25,25,25,30.23,30.23,0,0,2,0.00
2013-2-13,65,54,43,24,22,20,39,30,21,30.13,30.11,0,0,2,0.00
2013-2-14,79,68,56,28,25,22,35,24,12,30.08,29.97,4,2,6,0.00
2013-2-17,62,62,62,37,37,37,40,40,40,29.79,29.79,3,3,8,0.00
2013-2-18,75,47,55,43,3,-100,65,34,17,29.85,29.75,4,-248,6,0.00
2013-2-19,58,57,55,42,38,34,63,52,40,29.74,29.70,1,1,9,0.00
2013-2-21,64,36,44,29,-15,-100,47,25,27,29.96,29.83,1,-333,5,0.00
2013-2-22,68,62,56,26,24,21,32,24,17,30.07,29.98,2,1,3,0.00
2013-2-23,64,62,61,36,34,30,39,35,27,29.88,29.76,4,2,10,0.00
2013-2-26,60,60,60,15,15,15,17,17,17,29.95,29.95,0,0,1,0.00
2013-2-27,71,67,58,15,14,12,18,13,10,30.19,30.15,2,1,6,0.00
2013-2-28,81,54,80,14,-26,-100,8,5,6,30.22,30.14,3,-332,3,0.00